createdAt,value
2019-01-21T00:02:14.945Z,39.90
2019-01-21T00:04:40.852Z,43.93
2019-01-21T00:07:06.725Z,39.27
2019-01-21T00:09:32.649Z,39.40
2019-01-21T00:11:58.529Z,40.07
2019-01-21T00:14:24.439Z,40.57
2019-01-21T00:16:50.363Z,40.67
2019-01-21T00:19:16.347Z,36.70
2019-01-21T00:21:42.250Z,39.67
2019-01-21T00:24:08.181Z,41.47
2019-01-21T00:26:34.077Z,41.60
2019-01-21T00:28:59.952Z,38.77
2019-01-21T00:31:25.846Z,38.63
2019-01-21T00:33:51.716Z,41.13
2019-01-21T00:36:17.659Z,43.23
2019-01-21T00:38:43.544Z,41.93
2019-01-21T00:41:09.422Z,41.37
2019-01-21T00:43:35.868Z,40.53
2019-01-21T00:46:01.742Z,39.20
2019-01-21T00:48:27.678Z,39.53
2019-01-21T00:50:53.596Z,36.03
2019-01-21T00:53:19.482Z,36.60
2019-01-21T00:55:46.218Z,41.27
2019-01-21T00:58:12.085Z,39.43
2019-01-21T01:00:38.598Z,39.40
2019-01-21T01:03:04.505Z,44.30
2019-01-21T01:05:30.483Z,42.03
2019-01-21T01:07:56.410Z,43.43
2019-01-21T01:10:22.306Z,42.80
2019-01-21T01:12:48.175Z,45.80
2019-01-21T01:15:14.121Z,42.87
2019-01-21T01:17:44.987Z,42.40
2019-01-21T01:20:16.037Z,43.93
2019-01-21T01:22:41.917Z,45.30
2019-01-21T01:25:08.139Z,41.53
2019-01-21T01:27:34.011Z,43.33
2019-01-21T01:29:59.957Z,43.50
2019-01-21T01:32:25.869Z,41.90
2019-01-21T01:34:51.739Z,37.73
2019-01-21T01:37:17.675Z,36.87
2019-01-21T01:39:43.548Z,39.13
2019-01-21T01:42:09.455Z,38.00
2019-01-21T01:44:35.326Z,40.27
2019-01-21T01:47:01.243Z,38.47
2019-01-21T01:49:27.148Z,39.83
2019-01-21T01:51:53.179Z,37.30
2019-01-21T01:54:19.155Z,40.90
2019-01-21T01:56:45.068Z,38.03
2019-01-21T01:59:11.076Z,43.17
2019-01-21T02:01:36.966Z,40.07
2019-01-21T02:04:03.042Z,41.03
2019-01-21T02:06:28.910Z,37.80
2019-01-21T02:08:55.116Z,39.20
2019-01-21T02:11:20.990Z,37.37
2019-01-21T02:13:46.894Z,39.20
2019-01-21T02:16:12.905Z,40.77
2019-01-21T02:18:38.969Z,47.10
2019-01-21T02:21:04.827Z,44.47
2019-01-21T02:23:35.241Z,46.13
2019-01-21T02:26:01.554Z,39.33
2019-01-21T02:28:34.195Z,41.43
2019-01-21T02:31:20.591Z,39.57
2019-01-21T02:34:13.009Z,37.40
2019-01-21T02:37:11.828Z,38.67
2019-01-21T02:39:47.443Z,40.20
2019-01-21T02:42:17.147Z,34.87
2019-01-21T02:44:49.596Z,36.83
2019-01-21T02:47:22.320Z,40.60
2019-01-21T02:50:10.035Z,37.43
2019-01-21T02:52:48.503Z,41.30
2019-01-21T02:55:33.553Z,41.10
2019-01-21T02:58:20.483Z,38.50
2019-01-21T03:01:02.505Z,37.07
2019-01-21T03:03:38.203Z,37.67
2019-01-21T03:06:13.637Z,39.70
2019-01-21T03:08:59.819Z,34.20
2019-01-21T03:11:44.594Z,40.17
2019-01-21T03:14:14.290Z,37.10
2019-01-21T03:16:46.834Z,35.23
2019-01-21T03:19:22.880Z,38.57
2019-01-21T03:22:28.303Z,38.33
2019-01-21T03:25:14.421Z,38.00
2019-01-21T03:28:13.240Z,38.57
2019-01-21T03:30:51.833Z,43.00
2019-01-21T03:33:36.719Z,36.93
2019-01-21T03:36:06.430Z,41.13
2019-01-21T03:38:36.104Z,35.20
2019-01-21T03:41:06.215Z,36.73
2019-01-21T03:43:54.008Z,34.57
2019-01-21T03:46:59.211Z,36.33
2019-01-21T03:49:50.190Z,37.73
2019-01-21T03:52:42.470Z,34.30
2019-01-21T03:55:11.491Z,35.87
2019-01-21T03:57:41.207Z,33.33
2019-01-21T04:00:26.215Z,32.90
2019-01-21T04:03:15.238Z,36.50
2019-01-21T04:05:56.869Z,35.07
2019-01-21T04:08:46.644Z,34.20
2019-01-21T04:11:22.474Z,36.13
2019-01-21T04:14:04.553Z,36.53
2019-01-21T04:16:34.310Z,40.47
2019-01-21T04:19:18.626Z,33.47
2019-01-21T04:21:57.243Z,36.90
2019-01-21T04:24:27.020Z,39.10
2019-01-21T04:26:59.506Z,36.97
2019-01-21T04:29:49.143Z,34.97
2019-01-21T04:32:28.012Z,33.87
2019-01-21T04:35:12.723Z,32.63
2019-01-21T04:37:48.594Z,35.07
2019-01-21T04:40:21.041Z,36.20
2019-01-21T04:43:10.190Z,35.90
2019-01-21T04:45:43.142Z,34.37
2019-01-21T04:48:33.019Z,33.63
2019-01-21T04:51:24.101Z,32.80
2019-01-21T04:53:56.515Z,36.13
2019-01-21T04:56:34.567Z,38.23
2019-01-21T04:59:26.942Z,35.10
2019-01-21T05:02:02.219Z,29.70
2019-01-21T05:04:34.947Z,36.93
2019-01-21T05:07:24.549Z,37.27
2019-01-21T05:09:59.876Z,35.07
2019-01-21T05:12:38.884Z,34.00
2019-01-21T05:15:26.732Z,37.40
2019-01-21T05:18:05.496Z,36.30
2019-01-21T05:20:47.399Z,35.83
2019-01-21T05:23:26.291Z,37.60
2019-01-21T05:26:01.951Z,33.37
2019-01-21T05:28:46.794Z,39.93
2019-01-21T05:31:37.681Z,34.50
2019-01-21T05:34:13.337Z,33.07
2019-01-21T05:36:55.286Z,34.43
2019-01-21T05:39:40.351Z,37.20
2019-01-21T05:42:28.152Z,36.07
2019-01-21T05:45:13.155Z,35.20
2019-01-21T05:47:45.681Z,35.40
2019-01-21T05:50:21.369Z,32.03
2019-01-21T05:52:57.101Z,34.60
2019-01-21T05:55:45.336Z,32.37
2019-01-21T05:58:46.392Z,37.27
2019-01-21T06:01:28.428Z,34.50
2019-01-21T06:04:04.138Z,29.30
2019-01-21T06:06:54.019Z,35.97
2019-01-21T06:09:26.727Z,31.37
2019-01-21T06:12:17.676Z,31.60
2019-01-21T06:14:58.878Z,36.20
2019-01-21T06:17:31.164Z,38.00
2019-01-21T06:20:30.030Z,38.30
2019-01-21T06:23:05.197Z,36.00
2019-01-21T06:25:56.475Z,37.13
2019-01-21T06:28:35.206Z,33.50
2019-01-21T06:31:10.994Z,34.97
2019-01-21T06:33:47.020Z,39.03
2019-01-21T06:36:25.793Z,36.50
2019-01-21T06:39:10.467Z,37.50
2019-01-21T06:41:46.017Z,30.80
2019-01-21T06:44:39.725Z,39.23
2019-01-21T06:47:18.428Z,32.47
2019-01-21T06:50:06.231Z,34.50
2019-01-21T06:53:01.661Z,37.27
2019-01-21T06:55:34.054Z,33.10
2019-01-21T06:58:03.815Z,36.53
2019-01-21T07:00:36.370Z,36.57
2019-01-21T07:03:12.149Z,36.33
2019-01-21T07:05:56.727Z,35.23
2019-01-21T07:08:47.451Z,40.50
2019-01-21T07:11:38.429Z,39.03
2019-01-21T07:14:28.837Z,35.50
2019-01-21T07:17:07.745Z,38.17
2019-01-21T07:19:59.038Z,35.70
2019-01-21T07:22:37.847Z,35.27
2019-01-21T07:25:07.583Z,34.97
2019-01-21T07:27:52.573Z,32.50
2019-01-21T07:30:39.149Z,58.87
2019-01-21T07:33:23.681Z,71.37
2019-01-21T07:36:02.237Z,55.10
2019-01-21T07:38:35.171Z,63.20
2019-01-21T07:41:16.486Z,62.77
2019-01-21T07:43:58.108Z,71.63
2019-01-21T07:46:52.040Z,73.77
2019-01-21T07:49:49.457Z,75.07
2019-01-21T07:52:35.973Z,70.17
2019-01-21T07:55:17.911Z,67.20
2019-01-21T07:58:04.390Z,73.30
2019-01-21T08:00:49.544Z,68.30
2019-01-21T08:03:34.490Z,65.70
2019-01-21T08:06:24.113Z,60.37
2019-01-21T08:09:06.114Z,49.63
2019-01-21T08:11:53.953Z,45.70
2019-01-21T08:14:23.684Z,42.17
2019-01-21T08:17:14.052Z,48.87
2019-01-21T08:19:43.858Z,49.77
2019-01-21T08:22:25.930Z,42.07
2019-01-21T08:25:04.235Z,42.10
2019-01-21T08:27:52.028Z,39.83
2019-01-21T08:30:27.271Z,41.27
2019-01-21T08:33:17.093Z,40.70
2019-01-21T08:35:58.353Z,44.70
2019-01-21T08:38:31.421Z,45.43
2019-01-21T08:41:24.211Z,40.47
2019-01-21T08:44:13.311Z,41.30
2019-01-21T08:46:46.047Z,41.67
2019-01-21T08:49:21.947Z,38.13
2019-01-21T08:52:12.415Z,38.77
2019-01-21T08:54:47.883Z,46.40
2019-01-21T08:57:26.625Z,40.93
2019-01-21T08:59:59.078Z,45.87
2019-01-21T09:02:31.818Z,46.63
2019-01-21T09:05:10.361Z,43.90
2019-01-21T09:07:45.951Z,45.43
2019-01-21T09:10:44.817Z,42.37
2019-01-21T09:13:20.336Z,40.27
2019-01-21T09:16:13.875Z,37.03
2019-01-21T09:18:46.192Z,40.20
2019-01-21T09:21:21.704Z,42.57
2019-01-21T09:24:11.328Z,41.33
2019-01-21T09:26:46.629Z,40.60
2019-01-21T09:29:25.330Z,40.47
2019-01-21T09:32:14.516Z,41.03
2019-01-21T09:34:50.101Z,35.60
2019-01-21T09:37:22.960Z,36.70
2019-01-21T09:39:55.843Z,36.80
2019-01-21T09:42:28.279Z,39.77
2019-01-21T09:45:06.627Z,36.37
2019-01-21T09:47:32.290Z,37.43
2019-01-21T09:49:58.158Z,37.43
2019-01-21T09:52:24.074Z,35.00
2019-01-21T09:54:50.365Z,33.33
2019-01-21T09:57:16.590Z,34.63
2019-01-21T09:59:42.604Z,33.33
2019-01-21T10:02:08.529Z,35.20
2019-01-21T10:04:38.057Z,33.23
2019-01-21T10:07:22.833Z,33.03
2019-01-21T10:09:55.752Z,32.73
2019-01-21T10:12:54.687Z,34.20
2019-01-21T10:15:27.089Z,32.00
2019-01-21T10:18:06.118Z,30.33
2019-01-21T10:20:56.516Z,31.73
2019-01-21T10:23:44.077Z,34.60
2019-01-21T10:26:22.987Z,29.60
2019-01-21T10:28:55.714Z,30.27
2019-01-21T10:31:42.533Z,30.00
2019-01-21T10:34:15.025Z,29.40
2019-01-21T10:37:10.739Z,31.07
2019-01-21T10:39:52.000Z,29.03
2019-01-21T10:42:42.646Z,31.83
2019-01-21T10:45:33.908Z,31.87
2019-01-21T10:48:15.018Z,29.70
2019-01-21T10:51:16.694Z,32.83
2019-01-21T10:54:01.001Z,30.30
2019-01-21T10:56:39.572Z,30.23
2019-01-21T10:59:35.394Z,27.37
2019-01-21T11:02:11.150Z,27.87
2019-01-21T11:05:00.847Z,24.20
2019-01-21T11:07:39.778Z,22.57
2019-01-21T11:10:27.364Z,23.67
2019-01-21T11:12:59.978Z,22.20
2019-01-21T11:15:35.741Z,21.23
2019-01-21T11:18:17.519Z,24.63
2019-01-21T11:21:04.923Z,23.13
2019-01-21T11:23:54.657Z,24.10
2019-01-21T11:26:47.283Z,22.03
2019-01-21T11:29:19.997Z,23.43
2019-01-21T11:32:01.557Z,24.80
2019-01-21T11:34:46.755Z,24.00
2019-01-21T11:37:16.605Z,20.23
2019-01-21T11:39:49.285Z,21.27
2019-01-21T11:42:24.514Z,22.57
2019-01-21T11:45:20.437Z,23.83
2019-01-21T11:47:50.179Z,20.47
2019-01-21T11:50:31.610Z,21.47
2019-01-21T11:53:10.337Z,20.97
2019-01-21T11:55:42.818Z,21.13
2019-01-21T11:58:34.127Z,20.53
2019-01-21T12:01:09.749Z,19.67
2019-01-21T12:03:58.183Z,18.53
2019-01-21T12:06:30.702Z,21.17
2019-01-21T12:09:06.560Z,20.10
2019-01-21T12:11:42.352Z,21.53
2019-01-21T12:14:20.990Z,18.83
2019-01-21T12:16:59.722Z,20.33
2019-01-21T12:20:05.636Z,20.20
2019-01-21T12:22:50.172Z,20.17
2019-01-21T12:25:25.658Z,23.73
2019-01-21T12:27:58.106Z,19.83
2019-01-21T12:30:27.846Z,23.87
2019-01-21T12:33:00.398Z,18.93
2019-01-21T12:35:30.128Z,24.00
2019-01-21T12:38:22.568Z,20.43
2019-01-21T12:41:13.604Z,23.97
2019-01-21T12:43:49.110Z,21.80
2019-01-21T12:46:21.796Z,21.00
2019-01-21T12:49:02.934Z,22.00
2019-01-21T12:51:38.777Z,19.17
2019-01-21T12:54:11.496Z,23.10
2019-01-21T12:57:00.432Z,20.47
2019-01-21T12:59:42.665Z,21.30
2019-01-21T13:02:12.397Z,16.60
2019-01-21T13:04:42.105Z,18.40
2019-01-21T13:07:23.904Z,19.33
2019-01-21T13:09:59.591Z,19.87
2019-01-21T13:12:38.181Z,18.83
2019-01-21T13:15:10.863Z,17.90
2019-01-21T13:17:40.615Z,18.70
2019-01-21T13:20:30.543Z,16.27
2019-01-21T13:23:03.303Z,18.17
2019-01-21T13:25:38.961Z,18.03
2019-01-21T13:28:14.178Z,18.77
2019-01-21T13:31:03.722Z,16.67
2019-01-21T13:34:07.332Z,19.87
2019-01-21T13:37:12.157Z,16.27
2019-01-21T13:39:54.177Z,16.23
2019-01-21T13:42:23.917Z,16.80
2019-01-21T13:45:14.154Z,20.03
2019-01-21T13:47:58.334Z,16.43
2019-01-21T13:50:37.300Z,17.63
2019-01-21T13:53:14.474Z,15.47
2019-01-21T13:55:59.000Z,16.23
2019-01-21T13:58:45.036Z,15.13
2019-01-21T14:01:32.915Z,16.13
2019-01-21T14:04:31.792Z,15.77
2019-01-21T14:07:04.276Z,15.53
2019-01-21T14:09:54.822Z,16.23
2019-01-21T14:12:34.011Z,14.90
2019-01-21T14:15:24.586Z,20.40
2019-01-21T14:17:54.316Z,15.97
2019-01-21T14:20:24.003Z,15.13
2019-01-21T14:22:59.925Z,19.30
2019-01-21T14:25:46.171Z,18.90
2019-01-21T14:28:43.193Z,18.37
2019-01-21T14:31:21.893Z,21.33
2019-01-21T14:33:51.623Z,22.20
2019-01-21T14:36:43.230Z,17.90
2019-01-21T14:39:22.105Z,24.53
2019-01-21T14:42:08.521Z,17.67
2019-01-21T14:44:47.031Z,18.57
2019-01-21T14:47:28.797Z,21.23
2019-01-21T14:50:16.371Z,19.53
2019-01-21T14:52:54.672Z,18.63
2019-01-21T14:55:27.191Z,19.77
2019-01-21T14:58:15.338Z,21.37
2019-01-21T15:00:53.781Z,18.57
2019-01-21T15:03:26.482Z,19.53
2019-01-21T15:06:08.259Z,18.87
2019-01-21T15:08:37.994Z,20.07
2019-01-21T15:11:25.884Z,19.70
2019-01-21T15:16:41.571Z,22.00
2019-01-21T15:19:14.291Z,22.43
2019-01-21T15:21:44.243Z,17.30
2019-01-21T15:24:13.957Z,18.50
2019-01-21T15:26:52.847Z,19.50
2019-01-21T15:29:31.381Z,17.87
2019-01-21T15:32:01.110Z,21.20
2019-01-21T15:34:33.892Z,22.80
2019-01-21T15:37:06.753Z,18.47
2019-01-21T15:39:53.437Z,19.70
2019-01-21T15:42:41.377Z,17.37
2019-01-21T15:45:14.134Z,20.57
2019-01-21T15:48:02.055Z,16.90
2019-01-21T15:50:37.898Z,21.13
2019-01-21T15:53:16.187Z,24.23
2019-01-21T15:55:57.543Z,27.33
2019-01-21T15:58:39.545Z,38.47
2019-01-21T16:01:20.906Z,39.50
2019-01-21T16:03:50.609Z,22.97
2019-01-21T16:06:38.395Z,22.33
2019-01-21T16:09:14.111Z,29.03
2019-01-21T16:11:56.417Z,35.20
2019-01-21T16:14:26.187Z,39.60
2019-01-21T16:17:08.113Z,27.07
2019-01-21T16:19:34.953Z,25.63
2019-01-21T16:22:07.658Z,22.83
2019-01-21T16:24:46.228Z,22.63
2019-01-21T16:27:25.192Z,24.20
2019-01-21T16:29:57.807Z,24.27
2019-01-21T16:32:25.528Z,22.87
2019-01-21T16:34:58.378Z,24.43
2019-01-21T16:37:36.991Z,23.40
2019-01-21T16:40:21.502Z,22.93
2019-01-21T16:42:47.468Z,24.83
2019-01-21T16:45:13.460Z,23.37
2019-01-21T16:47:39.370Z,22.60
2019-01-21T16:50:06.301Z,23.33
2019-01-21T16:52:32.269Z,25.03
2019-01-21T16:54:58.142Z,21.80
2019-01-21T16:57:24.185Z,23.47
2019-01-21T16:59:50.101Z,24.70
2019-01-21T17:02:16.045Z,24.40
2019-01-21T17:04:42.119Z,24.07
2019-01-21T17:07:08.157Z,28.50
2019-01-21T17:09:34.096Z,25.50
2019-01-21T17:11:59.989Z,24.97
2019-01-21T17:14:25.930Z,24.43
2019-01-21T17:16:51.978Z,27.93
2019-01-21T17:19:17.943Z,26.83
2019-01-21T17:21:43.974Z,24.73
2019-01-21T17:24:10.010Z,33.20
2019-01-21T17:26:35.943Z,38.17
2019-01-21T17:29:01.910Z,45.50
2019-01-21T17:31:27.810Z,50.43
2019-01-21T17:33:53.841Z,69.70
2019-01-21T17:36:19.835Z,49.30
2019-01-21T17:38:45.865Z,60.60
2019-01-21T17:41:11.894Z,37.63
2019-01-21T17:43:37.803Z,32.07
2019-01-21T17:46:03.692Z,30.60
2019-01-21T17:48:29.742Z,29.30
2019-01-21T17:50:55.633Z,28.13
2019-01-21T17:53:21.572Z,25.73
2019-01-21T17:55:47.630Z,31.50
2019-01-21T17:58:13.502Z,28.47
2019-01-21T18:00:39.578Z,28.23
2019-01-21T18:03:05.563Z,28.53
2019-01-21T18:05:31.470Z,27.20
2019-01-21T18:07:57.382Z,27.07
2019-01-21T18:10:23.270Z,29.63
2019-01-21T18:12:49.823Z,29.00
2019-01-21T18:15:15.858Z,26.20
2019-01-21T18:17:41.864Z,27.67
2019-01-21T18:20:13.863Z,29.40
2019-01-21T18:22:39.839Z,27.10
2019-01-21T18:25:07.718Z,27.33
2019-01-21T18:27:33.637Z,26.83
2019-01-21T18:29:59.570Z,27.33
2019-01-21T18:32:25.449Z,25.03
2019-01-21T18:34:51.462Z,25.30
2019-01-21T18:37:17.364Z,28.20
2019-01-21T18:39:43.687Z,26.57
2019-01-21T18:42:09.561Z,26.93
2019-01-21T18:44:35.603Z,26.07
2019-01-21T18:47:01.589Z,28.47
2019-01-21T18:49:27.511Z,26.80
2019-01-21T18:51:53.389Z,26.00
2019-01-21T18:54:19.375Z,25.73
2019-01-21T18:56:45.256Z,25.27
2019-01-21T18:59:11.135Z,26.57
2019-01-21T19:01:37.166Z,29.73
2019-01-21T19:04:03.051Z,24.73
2019-01-21T19:06:29.020Z,26.57
2019-01-21T19:08:54.915Z,27.47
2019-01-21T19:11:20.838Z,28.17
2019-01-21T19:13:46.717Z,30.13
2019-01-21T19:16:12.667Z,27.33
2019-01-21T19:18:38.608Z,25.97
2019-01-21T19:21:04.579Z,26.37
2019-01-21T19:23:30.478Z,26.23
2019-01-21T19:25:56.384Z,26.37
2019-01-21T19:28:22.278Z,28.10
2019-01-21T19:30:48.186Z,26.37
2019-01-21T19:33:14.104Z,26.50
2019-01-21T19:35:40.002Z,26.57
2019-01-21T19:38:05.926Z,28.70
2019-01-21T19:40:32.244Z,26.17
2019-01-21T19:42:58.241Z,25.67
2019-01-21T19:45:24.192Z,27.00
2019-01-21T19:47:50.085Z,26.83
2019-01-21T19:50:20.954Z,26.87
2019-01-21T19:52:46.849Z,23.77
2019-01-21T19:55:22.375Z,27.83
2019-01-21T19:57:48.265Z,26.03
2019-01-21T20:00:19.304Z,27.23
2019-01-21T20:02:45.221Z,25.77
2019-01-21T20:05:11.243Z,25.27
2019-01-21T20:07:37.245Z,28.37
2019-01-21T20:10:06.991Z,26.13
2019-01-21T20:12:32.910Z,25.60
2019-01-21T20:14:58.840Z,25.03
2019-01-21T20:17:24.833Z,27.30
2019-01-21T20:19:50.920Z,23.80
2019-01-21T20:22:16.853Z,27.03
2019-01-21T20:24:42.729Z,25.17
2019-01-21T20:27:08.653Z,26.60
2019-01-21T20:29:34.562Z,25.13
2019-01-21T20:32:00.473Z,26.93
2019-01-21T20:34:26.350Z,24.97
2019-01-21T20:36:52.275Z,27.33
2019-01-21T20:39:18.260Z,24.67
2019-01-21T20:41:44.196Z,24.80
2019-01-21T20:44:10.111Z,29.07
2019-01-21T20:46:36.017Z,25.43
2019-01-21T20:49:02.053Z,24.30
2019-01-21T20:51:27.954Z,25.77
2019-01-21T20:53:53.906Z,29.90
2019-01-21T20:56:19.842Z,26.30
2019-01-21T20:58:45.958Z,27.13
2019-01-21T21:01:13.305Z,26.13
2019-01-21T21:03:39.354Z,25.80
2019-01-21T21:06:05.275Z,27.80
2019-01-21T21:08:31.306Z,25.60
2019-01-21T21:10:57.425Z,26.03
2019-01-21T21:13:23.338Z,23.57
2019-01-21T21:15:49.263Z,25.53
2019-01-21T21:18:15.156Z,25.23
2019-01-21T21:20:41.088Z,27.67
2019-01-21T21:23:06.954Z,25.70
2019-01-21T21:25:32.878Z,25.10
2019-01-21T21:27:58.783Z,30.00
2019-01-21T21:30:27.681Z,26.70
2019-01-21T21:32:53.594Z,26.53
2019-01-21T21:35:19.775Z,25.00
2019-01-21T21:37:45.720Z,27.37
2019-01-21T21:40:14.011Z,26.27
2019-01-21T21:42:40.112Z,28.13
2019-01-21T21:45:08.895Z,25.70
2019-01-21T21:47:34.811Z,25.40
2019-01-21T21:50:00.689Z,27.53
2019-01-21T21:52:27.908Z,25.13
2019-01-21T21:54:53.988Z,26.83
2019-01-21T21:57:19.932Z,25.03
2019-01-21T21:59:45.827Z,27.47
2019-01-21T22:02:11.733Z,29.33
2019-01-21T22:04:37.645Z,25.30
2019-01-21T22:07:03.849Z,24.23
2019-01-21T22:09:29.733Z,26.10
2019-01-21T22:11:55.632Z,24.93
2019-01-21T22:14:21.527Z,27.80
2019-01-21T22:16:47.441Z,24.30
2019-01-21T22:19:13.362Z,27.13
2019-01-21T22:21:39.280Z,26.27
2019-01-21T22:24:05.648Z,25.97
2019-01-21T22:26:31.547Z,26.10
2019-01-21T22:28:57.452Z,30.30
2019-01-21T22:31:23.334Z,29.43
2019-01-21T22:33:49.234Z,27.53
2019-01-21T22:36:15.105Z,26.97
2019-01-21T22:38:41.062Z,29.17
2019-01-21T22:41:07.229Z,28.23
2019-01-21T22:43:37.916Z,29.23
2019-01-21T22:46:04.052Z,26.33
2019-01-21T22:48:29.930Z,27.73
2019-01-21T22:50:55.858Z,27.33
2019-01-21T22:53:21.731Z,28.63
2019-01-21T22:55:47.635Z,29.47
2019-01-21T22:58:13.537Z,32.00
2019-01-21T23:00:45.117Z,27.47
2019-01-21T23:03:11.759Z,28.97
2019-01-21T23:05:37.596Z,28.47
2019-01-21T23:08:03.610Z,29.17
2019-01-21T23:10:29.471Z,28.17
2019-01-21T23:12:55.385Z,30.53
2019-01-21T23:15:21.254Z,28.57
2019-01-21T23:17:47.192Z,30.03
2019-01-21T23:20:13.204Z,27.80
2019-01-21T23:22:39.043Z,30.63
2019-01-21T23:25:05.656Z,29.47
2019-01-21T23:27:31.529Z,30.97
2019-01-21T23:29:57.543Z,30.63
2019-01-21T23:32:23.420Z,31.70
2019-01-21T23:34:49.327Z,28.10
2019-01-21T23:37:15.184Z,25.63
2019-01-21T23:39:41.150Z,28.40
2019-01-21T23:42:07.056Z,29.40
2019-01-21T23:44:32.967Z,28.53
2019-01-21T23:46:59.154Z,29.47
2019-01-21T23:49:25.080Z,29.20
2019-01-21T23:51:50.986Z,29.37
2019-01-21T23:54:16.881Z,28.60
2019-01-21T23:56:42.797Z,28.00
2019-01-21T23:59:08.662Z,27.30
